Terminal Aerodrome Forecast
Issued by NWS Buffalo, NY

Home | Current Version | Previous Version | Text Only | Print | Product List | Glossary On
Versions: 1 2 3 4 5 6 7 8 9 10 11 12 13 14 15 16 17 18 19 20 21 22 23 24 25
000
FTUS41 KBUF 172035 AAA
TAFART
TAF AMD
KART 172035Z 1721/1818 07010KT 5SM -RA OVC030
     FM180000 10006KT 6SM -RA OVC020
     FM180500 14005KT 6SM -RA OVC012
     FM181100 18005KT P6SM VCSH OVC012
     FM181500 19006KT P6SM OVC007=

USA.gov is the U.S. government's official web portal to all federal, state and local government web resources and services.